createdAt,value
2023-01-29T00:00:03.377Z,65.59
2023-01-29T00:02:30.031Z,65.79
2023-01-29T00:08:12.038Z,65.52
2023-01-29T00:10:38.684Z,65.78
2023-01-29T00:13:05.437Z,65.11
2023-01-29T00:15:32.015Z,65.35
2023-01-29T00:17:58.796Z,65.81
2023-01-29T00:20:25.338Z,65.72
2023-01-29T00:22:51.861Z,66.19
2023-01-29T00:25:19.333Z,66.04
2023-01-29T00:27:45.913Z,66.00
2023-01-29T00:30:12.443Z,66.21
2023-01-29T00:32:39.089Z,65.65
2023-01-29T00:35:05.872Z,65.78
2023-01-29T00:37:32.718Z,65.81
2023-01-29T00:39:59.421Z,65.61
2023-01-29T00:42:26.024Z,64.73
2023-01-29T00:44:52.461Z,64.46
2023-01-29T00:47:19.291Z,65.83
2023-01-29T00:49:48.039Z,65.56
2023-01-29T01:03:28.958Z,64.58
2023-01-29T01:06:01.069Z,64.45
2023-01-29T01:08:27.981Z,64.84
2023-01-29T01:10:54.793Z,64.32
2023-01-29T01:13:23.285Z,64.52
2023-01-29T01:15:50.031Z,64.21
2023-01-29T01:18:17.465Z,64.34
2023-01-29T01:20:44.281Z,64.51
2023-01-29T01:23:11.105Z,64.47
2023-01-29T01:25:39.811Z,63.64
2023-01-29T01:28:07.032Z,64.06
2023-01-29T01:30:33.736Z,64.14
2023-01-29T01:33:00.524Z,64.56
2023-01-29T01:35:27.130Z,64.81
2023-01-29T01:37:53.950Z,64.68
2023-01-29T01:42:49.319Z,64.19
2023-01-29T01:45:15.926Z,64.50
2023-01-29T01:47:42.803Z,64.28
2023-01-29T01:50:09.232Z,65.01
2023-01-29T01:52:37.931Z,64.35
2023-01-29T01:55:04.769Z,64.59
2023-01-29T01:57:31.363Z,64.99
2023-01-29T01:59:58.226Z,64.99
2023-01-29T02:02:27.336Z,65.27
2023-01-29T02:04:54.241Z,64.50
2023-01-29T02:07:20.806Z,64.24
2023-01-29T02:09:47.506Z,64.61
2023-01-29T02:12:14.340Z,64.99
2023-01-29T02:14:40.935Z,64.94
2023-01-29T02:17:14.803Z,65.06
2023-01-29T02:19:41.448Z,65.29
2023-01-29T02:22:08.158Z,65.11
2023-01-29T02:24:36.291Z,65.41
2023-01-29T02:27:03.221Z,65.90
2023-01-29T02:29:29.846Z,65.76
2023-01-29T02:31:56.370Z,65.85
2023-01-29T02:34:23.171Z,66.39
2023-01-29T02:36:49.699Z,65.98
2023-01-29T02:39:16.566Z,65.36
2023-01-29T02:41:45.486Z,65.54
2023-01-29T02:44:12.323Z,65.05
2023-01-29T02:46:39.003Z,65.56
2023-01-29T02:49:05.481Z,65.97
2023-01-29T02:51:34.046Z,65.24
2023-01-29T02:54:00.639Z,65.20
2023-01-29T02:56:27.188Z,65.30
2023-01-29T02:58:54.027Z,65.24
2023-01-29T03:01:20.627Z,64.38
2023-01-29T03:03:47.282Z,65.63
2023-01-29T03:06:14.148Z,65.69
2023-01-29T03:08:40.684Z,65.48
2023-01-29T03:11:07.273Z,65.25
2023-01-29T03:13:33.782Z,65.40
2023-01-29T03:16:00.650Z,65.81
2023-01-29T03:18:27.474Z,65.01
2023-01-29T03:20:54.248Z,64.38
2023-01-29T03:23:21.071Z,64.64
2023-01-29T03:25:47.961Z,65.25
2023-01-29T03:28:14.729Z,64.56
2023-01-29T03:30:41.427Z,64.65
2023-01-29T03:33:08.194Z,64.08
2023-01-29T03:35:34.704Z,63.82
2023-01-29T03:38:01.256Z,64.98
2023-01-29T03:40:28.527Z,64.90
2023-01-29T03:42:59.077Z,63.96
2023-01-29T03:45:25.637Z,64.54
2023-01-29T03:47:52.203Z,64.47
2023-01-29T03:50:19.029Z,64.09
2023-01-29T03:52:45.817Z,64.84
2023-01-29T03:55:12.501Z,64.65
2023-01-29T03:57:41.464Z,63.56
2023-01-29T04:00:08.049Z,63.68
2023-01-29T04:02:34.868Z,62.90
2023-01-29T04:05:01.730Z,62.46
2023-01-29T04:07:28.789Z,63.70
2023-01-29T04:09:56.237Z,63.54
2023-01-29T04:12:23.459Z,64.38
2023-01-29T04:14:49.987Z,63.98
2023-01-29T04:17:18.493Z,63.98
2023-01-29T04:19:45.004Z,63.82
2023-01-29T04:22:11.721Z,63.10
2023-01-29T04:24:40.703Z,62.90
2023-01-29T04:27:09.102Z,63.87
2023-01-29T04:29:35.647Z,64.01
2023-01-29T04:32:02.463Z,63.50
2023-01-29T04:34:30.042Z,63.48
2023-01-29T04:36:56.928Z,64.06
2023-01-29T04:39:23.465Z,64.85
2023-01-29T04:41:50.800Z,63.47
2023-01-29T04:44:17.425Z,63.71
2023-01-29T04:46:44.257Z,63.29
2023-01-29T04:52:27.478Z,63.12
2023-01-29T04:54:54.181Z,62.30
2023-01-29T04:57:20.885Z,62.32
2023-01-29T04:59:47.676Z,63.99
2023-01-29T05:02:14.229Z,63.64
2023-01-29T05:04:43.470Z,63.90
2023-01-29T05:07:10.310Z,64.58
2023-01-29T05:09:37.660Z,64.49
2023-01-29T05:12:04.453Z,63.57
2023-01-29T05:14:31.416Z,63.92
2023-01-29T05:16:58.031Z,64.46
2023-01-29T05:19:24.797Z,64.78
2023-01-29T05:21:52.452Z,64.84
2023-01-29T05:24:19.335Z,64.04
2023-01-29T05:26:47.826Z,63.38
2023-01-29T05:29:14.765Z,63.63
2023-01-29T05:31:41.411Z,63.01
2023-01-29T05:34:08.236Z,63.75
2023-01-29T05:36:34.895Z,62.79
2023-01-29T05:39:04.158Z,62.24
2023-01-29T05:41:30.759Z,61.41
2023-01-29T05:44:00.255Z,62.64
2023-01-29T05:46:27.439Z,63.30
2023-01-29T05:48:56.580Z,63.04
2023-01-29T05:51:23.388Z,63.48
2023-01-29T05:53:50.240Z,63.33
2023-01-29T05:56:17.157Z,64.16
2023-01-29T05:58:46.146Z,63.58
2023-01-29T06:01:13.452Z,64.23
2023-01-29T06:03:40.067Z,64.06
2023-01-29T06:06:08.995Z,63.14
2023-01-29T06:08:35.754Z,63.55
2023-01-29T06:11:02.553Z,64.14
2023-01-29T06:13:29.774Z,64.23
2023-01-29T06:15:56.450Z,63.63
2023-01-29T06:18:23.840Z,63.94
2023-01-29T06:20:50.438Z,63.76
2023-01-29T06:23:17.260Z,63.59
2023-01-29T06:25:44.063Z,63.46
2023-01-29T06:28:10.908Z,63.07
2023-01-29T06:30:39.804Z,62.86
2023-01-29T06:33:08.757Z,62.45
2023-01-29T06:35:35.584Z,61.21
2023-01-29T06:38:04.573Z,62.40
2023-01-29T06:40:32.629Z,62.02
2023-01-29T06:42:59.929Z,61.62
2023-01-29T06:45:27.031Z,62.00
2023-01-29T06:47:53.701Z,62.12
2023-01-29T06:50:20.437Z,59.84
2023-01-29T06:52:49.297Z,60.89
2023-01-29T06:55:15.995Z,60.80
2023-01-29T06:57:43.025Z,60.74
2023-01-29T07:00:09.774Z,60.70
2023-01-29T07:02:40.826Z,61.58
2023-01-29T07:05:07.574Z,60.36
2023-01-29T07:07:34.390Z,61.17
2023-01-29T07:10:01.922Z,60.67
2023-01-29T07:12:28.686Z,61.13
2023-01-29T07:14:57.621Z,62.19
2023-01-29T07:17:24.434Z,62.54
2023-01-29T07:19:51.799Z,61.85
2023-01-29T07:22:18.642Z,61.59
2023-01-29T07:24:45.209Z,62.79
2023-01-29T07:27:12.805Z,61.66
2023-01-29T07:29:39.524Z,60.29
2023-01-29T07:32:06.043Z,60.66
2023-01-29T07:34:32.896Z,61.33
2023-01-29T07:36:59.609Z,60.55
2023-01-29T07:42:15.249Z,59.71
2023-01-29T07:44:44.345Z,58.88
2023-01-29T07:47:11.046Z,59.60
2023-01-29T07:49:38.885Z,59.24
2023-01-29T07:52:05.741Z,58.98
2023-01-29T07:54:32.231Z,59.82
2023-01-29T07:57:00.924Z,60.20
2023-01-29T08:02:30.545Z,58.83
2023-01-29T08:04:57.451Z,57.74
2023-01-29T08:07:24.014Z,57.10
2023-01-29T08:09:51.352Z,54.37
2023-01-29T08:12:20.236Z,52.26
2023-01-29T08:14:46.793Z,51.35
2023-01-29T08:17:15.732Z,52.09
2023-01-29T08:19:42.376Z,53.76
2023-01-29T08:22:08.969Z,56.04
2023-01-29T08:24:47.926Z,53.48
2023-01-29T08:27:20.873Z,51.25
2023-01-29T08:29:47.739Z,50.75
2023-01-29T08:32:14.898Z,52.72
2023-01-29T08:34:41.488Z,52.18
2023-01-29T08:37:08.365Z,51.10
2023-01-29T08:39:35.186Z,51.81
2023-01-29T08:42:02.760Z,52.21
2023-01-29T08:44:34.206Z,53.22
2023-01-29T08:47:00.920Z,52.11
2023-01-29T08:49:27.623Z,51.98
2023-01-29T08:51:54.307Z,50.98
2023-01-29T08:54:23.822Z,50.10
2023-01-29T08:56:50.502Z,49.08
2023-01-29T08:59:17.305Z,48.60
2023-01-29T09:01:44.189Z,48.84
2023-01-29T09:07:12.821Z,46.76
2023-01-29T09:09:39.421Z,46.76
2023-01-29T09:12:06.032Z,46.64
2023-01-29T09:14:32.876Z,46.25
2023-01-29T09:16:59.716Z,45.51
2023-01-29T09:19:28.737Z,45.27
2023-01-29T09:21:55.814Z,45.25
2023-01-29T09:24:22.331Z,44.54
2023-01-29T09:26:50.232Z,44.40
2023-01-29T09:29:17.013Z,44.63
2023-01-29T09:31:43.708Z,44.31
2023-01-29T09:34:10.459Z,44.15
2023-01-29T09:36:39.438Z,43.76
2023-01-29T09:39:09.281Z,45.19
2023-01-29T09:41:36.108Z,46.02
2023-01-29T09:44:02.926Z,46.39
2023-01-29T09:46:29.805Z,48.42
2023-01-29T09:48:56.527Z,47.22
2023-01-29T09:51:23.435Z,46.66
2023-01-29T09:53:50.114Z,47.09
2023-01-29T09:56:17.395Z,48.20
2023-01-29T09:58:44.011Z,48.82
2023-01-29T10:01:10.687Z,48.15
2023-01-29T10:03:38.178Z,49.13
2023-01-29T10:06:04.691Z,47.19
2023-01-29T10:08:31.640Z,45.55
2023-01-29T10:10:58.370Z,44.86
2023-01-29T10:13:26.313Z,44.80
2023-01-29T10:15:52.913Z,43.81
2023-01-29T10:18:19.729Z,44.66
2023-01-29T10:20:46.397Z,44.43
2023-01-29T10:23:13.013Z,43.84
2023-01-29T10:25:39.518Z,43.55
2023-01-29T10:28:05.973Z,43.88
2023-01-29T10:30:34.961Z,45.15
2023-01-29T10:33:02.473Z,44.39
2023-01-29T10:35:29.297Z,43.84
2023-01-29T10:37:55.819Z,43.48
2023-01-29T10:40:22.367Z,43.74
2023-01-29T10:42:49.138Z,43.67
2023-01-29T10:45:16.045Z,43.12
2023-01-29T10:47:43.335Z,43.55
2023-01-29T10:50:10.109Z,43.47
2023-01-29T10:52:36.896Z,44.37
2023-01-29T10:55:03.598Z,44.36
2023-01-29T10:57:30.192Z,42.96
2023-01-29T10:59:57.226Z,42.67
2023-01-29T11:02:23.852Z,44.12
2023-01-29T11:04:51.275Z,42.90
2023-01-29T11:07:18.022Z,42.52
2023-01-29T11:09:47.478Z,43.13
2023-01-29T11:12:14.179Z,42.71
2023-01-29T11:14:41.073Z,42.62
2023-01-29T11:17:08.627Z,42.66
2023-01-29T11:19:35.144Z,44.65
2023-01-29T11:22:01.917Z,43.52
2023-01-29T11:24:28.690Z,42.31
2023-01-29T11:26:55.492Z,41.84
2023-01-29T11:29:22.209Z,42.27
2023-01-29T11:31:48.852Z,42.26
2023-01-29T11:34:15.414Z,43.04
2023-01-29T11:36:41.952Z,42.62
2023-01-29T11:39:08.767Z,41.69
2023-01-29T11:41:36.404Z,41.65
2023-01-29T11:44:03.144Z,41.16
2023-01-29T11:46:29.830Z,41.24
2023-01-29T11:48:59.265Z,41.67
2023-01-29T11:51:32.529Z,41.27
2023-01-29T11:53:59.397Z,40.72
2023-01-29T11:56:26.680Z,40.51
2023-01-29T11:58:53.433Z,40.24
2023-01-29T12:01:20.012Z,39.95
2023-01-29T12:03:46.633Z,38.99
2023-01-29T12:09:08.363Z,41.65
2023-01-29T12:11:37.232Z,40.72
2023-01-29T12:14:07.565Z,40.15
2023-01-29T12:16:34.582Z,39.36
2023-01-29T12:19:01.139Z,39.00
2023-01-29T12:21:28.711Z,39.37
2023-01-29T12:23:56.003Z,39.15
2023-01-29T12:26:22.669Z,38.88
2023-01-29T12:28:49.767Z,39.09
2023-01-29T12:31:16.326Z,38.56
2023-01-29T12:33:42.882Z,39.27
2023-01-29T12:36:10.964Z,41.59
2023-01-29T12:38:37.694Z,42.12
2023-01-29T12:41:04.206Z,43.84
2023-01-29T12:43:32.821Z,42.54
2023-01-29T12:46:00.424Z,40.95
2023-01-29T12:48:27.869Z,39.74
2023-01-29T12:50:55.347Z,39.67
2023-01-29T12:53:22.685Z,39.06
2023-01-29T12:55:49.754Z,38.90
2023-01-29T12:58:16.773Z,39.18
2023-01-29T13:00:44.161Z,39.90
2023-01-29T13:03:10.813Z,38.76
2023-01-29T13:08:55.099Z,38.34
2023-01-29T13:14:14.906Z,38.09
2023-01-29T13:19:56.579Z,41.22
2023-01-29T13:22:25.850Z,45.25
2023-01-29T13:25:04.309Z,45.27
2023-01-29T13:27:31.984Z,43.51
2023-01-29T13:29:58.504Z,42.05
2023-01-29T13:32:24.993Z,42.33
2023-01-29T13:34:51.578Z,44.36
2023-01-29T13:37:18.115Z,43.27
2023-01-29T13:39:44.615Z,43.41
2023-01-29T13:42:11.345Z,43.45
2023-01-29T13:44:38.166Z,42.99
2023-01-29T13:47:04.756Z,41.65
2023-01-29T13:49:31.283Z,40.60
2023-01-29T13:51:58.108Z,40.05
2023-01-29T13:54:25.008Z,40.41
2023-01-29T13:56:51.878Z,40.94
2023-01-29T13:59:18.654Z,41.01
2023-01-29T14:01:45.255Z,40.00
2023-01-29T14:04:12.042Z,41.56
2023-01-29T14:06:38.576Z,41.28
2023-01-29T14:09:05.180Z,40.95
2023-01-29T14:11:32.630Z,40.47
2023-01-29T14:16:49.250Z,41.14
2023-01-29T14:19:18.484Z,40.05
2023-01-29T14:21:47.074Z,39.71
2023-01-29T14:24:13.925Z,38.97
2023-01-29T14:26:43.588Z,38.98
2023-01-29T14:29:10.250Z,39.05
2023-01-29T14:31:36.879Z,38.71
2023-01-29T14:34:03.573Z,39.40
2023-01-29T14:36:30.087Z,38.45
2023-01-29T14:39:01.847Z,38.77
2023-01-29T14:41:32.917Z,40.00
2023-01-29T14:43:59.472Z,44.29
2023-01-29T14:46:26.308Z,45.06
2023-01-29T14:48:53.851Z,45.23
2023-01-29T14:51:20.516Z,46.88
2023-01-29T14:53:48.242Z,48.34
2023-01-29T14:56:14.814Z,48.53
2023-01-29T14:58:42.238Z,47.75
2023-01-29T15:01:08.981Z,49.01
2023-01-29T15:03:35.529Z,48.82
2023-01-29T15:06:03.687Z,49.51
2023-01-29T15:08:30.733Z,50.06
2023-01-29T15:10:57.638Z,49.24
2023-01-29T15:13:26.476Z,48.82
2023-01-29T15:15:54.125Z,48.18
2023-01-29T15:18:20.762Z,47.07
2023-01-29T15:20:49.714Z,48.56
2023-01-29T15:23:16.481Z,48.94
2023-01-29T15:25:45.461Z,47.80
2023-01-29T15:28:12.247Z,46.25
2023-01-29T15:30:39.205Z,44.91
2023-01-29T15:33:06.119Z,43.93
2023-01-29T15:35:34.911Z,43.72
2023-01-29T15:38:01.597Z,42.68
2023-01-29T15:40:28.111Z,43.22
2023-01-29T15:42:56.700Z,43.73
2023-01-29T15:45:23.863Z,45.61
2023-01-29T15:47:50.516Z,45.24
2023-01-29T15:50:17.268Z,45.18
2023-01-29T15:52:44.147Z,45.96
2023-01-29T15:55:10.924Z,47.09
2023-01-29T15:57:37.695Z,46.65
2023-01-29T16:00:04.290Z,47.10
2023-01-29T16:02:31.909Z,46.21
2023-01-29T16:04:58.721Z,46.23
2023-01-29T16:07:25.603Z,47.48
2023-01-29T16:09:52.656Z,48.50
2023-01-29T16:12:22.498Z,49.07
2023-01-29T16:14:49.647Z,49.77
2023-01-29T16:17:18.049Z,49.98
2023-01-29T16:19:49.119Z,50.11
2023-01-29T16:22:15.673Z,50.36
2023-01-29T16:24:42.294Z,49.02
2023-01-29T16:27:08.860Z,50.44
2023-01-29T16:29:35.861Z,48.32
2023-01-29T16:32:02.620Z,48.27
2023-01-29T16:34:29.623Z,48.64
2023-01-29T16:36:56.179Z,47.96
2023-01-29T16:39:23.272Z,46.36
2023-01-29T16:41:51.001Z,45.35
2023-01-29T16:44:17.602Z,44.99
2023-01-29T16:46:44.472Z,45.14
2023-01-29T16:49:12.088Z,45.18
2023-01-29T16:51:40.403Z,43.73
2023-01-29T16:54:07.003Z,43.14
2023-01-29T16:56:34.607Z,43.35
2023-01-29T16:59:13.821Z,42.75
2023-01-29T17:01:40.296Z,42.78
2023-01-29T17:04:07.750Z,42.33
2023-01-29T17:06:35.378Z,42.69
2023-01-29T17:09:01.991Z,42.24
2023-01-29T17:11:28.882Z,42.52
2023-01-29T17:13:56.551Z,41.98
2023-01-29T17:16:23.723Z,42.12
2023-01-29T17:18:50.405Z,42.26
2023-01-29T17:21:17.023Z,42.49
2023-01-29T17:23:44.423Z,42.38
2023-01-29T17:26:11.429Z,42.43
2023-01-29T17:28:38.123Z,42.22
2023-01-29T17:31:07.208Z,42.41
2023-01-29T17:39:36.163Z,42.32
2023-01-29T17:42:03.390Z,42.86
2023-01-29T17:44:31.024Z,42.48
2023-01-29T17:46:57.999Z,42.71
2023-01-29T17:49:24.653Z,42.39
2023-01-29T17:51:54.111Z,42.99
2023-01-29T17:54:20.968Z,43.62
2023-01-29T17:56:47.671Z,43.17
2023-01-29T17:59:16.942Z,43.28
2023-01-29T18:01:43.886Z,42.91
2023-01-29T18:04:15.315Z,42.99
2023-01-29T18:06:47.654Z,43.16
2023-01-29T18:09:14.291Z,43.00
2023-01-29T18:11:41.291Z,42.91
2023-01-29T18:14:14.527Z,43.22
2023-01-29T18:16:41.550Z,43.57
2023-01-29T18:19:08.465Z,43.27
2023-01-29T18:21:35.335Z,43.04
2023-01-29T18:24:02.927Z,42.80
2023-01-29T18:26:29.731Z,43.70
2023-01-29T18:28:56.631Z,43.80
2023-01-29T18:31:23.775Z,43.85
2023-01-29T18:33:54.391Z,43.73
2023-01-29T18:36:22.782Z,43.19
2023-01-29T18:38:49.939Z,43.93
2023-01-29T18:41:17.277Z,46.21
2023-01-29T18:43:43.958Z,48.16
2023-01-29T18:46:14.891Z,49.83
2023-01-29T18:48:43.008Z,51.95
2023-01-29T18:51:10.610Z,52.69
2023-01-29T18:53:38.448Z,52.56
2023-01-29T18:56:07.383Z,52.87
2023-01-29T18:58:39.595Z,52.59
2023-01-29T19:01:08.678Z,53.73
2023-01-29T19:03:35.734Z,54.16
2023-01-29T19:06:02.378Z,53.50
2023-01-29T19:08:29.236Z,53.28
2023-01-29T19:10:55.795Z,52.44
2023-01-29T19:13:22.654Z,52.61
2023-01-29T19:15:49.377Z,53.66
2023-01-29T19:18:16.257Z,53.82
2023-01-29T19:20:42.804Z,53.69
2023-01-29T19:23:09.422Z,54.46
2023-01-29T19:31:41.142Z,50.57
2023-01-29T19:34:07.764Z,49.90
2023-01-29T19:36:34.319Z,49.04
2023-01-29T19:39:01.082Z,50.00
2023-01-29T19:41:29.688Z,49.88
2023-01-29T19:43:56.514Z,49.49
2023-01-29T19:46:31.063Z,49.91
2023-01-29T19:48:59.798Z,50.96
2023-01-29T19:51:29.053Z,52.00
2023-01-29T19:53:55.682Z,51.59
2023-01-29T19:59:02.744Z,49.87
2023-01-29T20:01:30.109Z,49.02
2023-01-29T20:03:57.550Z,49.32
2023-01-29T20:06:24.198Z,50.64
2023-01-29T20:08:51.215Z,49.62
2023-01-29T20:11:18.481Z,49.31
2023-01-29T20:13:45.382Z,51.21
2023-01-29T20:16:13.687Z,50.91
2023-01-29T20:18:42.470Z,49.66
2023-01-29T20:21:09.248Z,48.44
2023-01-29T20:23:38.743Z,48.75
2023-01-29T20:26:07.604Z,48.05
2023-01-29T20:28:36.909Z,49.67
2023-01-29T20:31:03.868Z,51.00
2023-01-29T20:33:31.266Z,52.01
2023-01-29T20:35:57.878Z,51.22
2023-01-29T20:38:24.807Z,51.81
2023-01-29T20:40:51.647Z,52.50
2023-01-29T20:43:18.506Z,53.58
2023-01-29T20:54:31.818Z,52.05
2023-01-29T20:56:59.202Z,55.00
2023-01-29T20:59:25.746Z,54.88
2023-01-29T21:01:52.441Z,53.10
2023-01-29T21:04:19.024Z,54.07
2023-01-29T21:06:47.831Z,53.28
2023-01-29T21:09:14.377Z,54.50
2023-01-29T21:11:40.828Z,54.63
2023-01-29T21:14:09.098Z,53.86
2023-01-29T21:16:36.227Z,54.79
2023-01-29T21:19:03.539Z,55.60
2023-01-29T21:21:31.237Z,57.55
2023-01-29T21:23:57.915Z,56.29
2023-01-29T21:26:25.603Z,54.91
2023-01-29T21:28:52.535Z,53.31
2023-01-29T21:31:19.992Z,54.09
2023-01-29T21:33:46.844Z,53.61
2023-01-29T21:36:13.477Z,54.92
2023-01-29T21:38:40.095Z,53.76
2023-01-29T21:41:06.627Z,53.70
2023-01-29T21:43:33.150Z,52.53
2023-01-29T21:45:59.793Z,51.29
2023-01-29T21:51:41.630Z,51.54
2023-01-29T21:54:08.195Z,51.06
2023-01-29T21:56:35.007Z,50.94
2023-01-29T21:59:01.860Z,51.45
2023-01-29T22:01:37.979Z,51.38
2023-01-29T22:04:07.633Z,53.73
2023-01-29T22:06:34.536Z,56.64
2023-01-29T22:09:01.331Z,56.69
2023-01-29T22:11:28.361Z,58.48
2023-01-29T22:13:55.029Z,58.30
2023-01-29T22:16:23.261Z,57.98
2023-01-29T22:18:50.088Z,55.96
2023-01-29T22:21:16.617Z,56.77
2023-01-29T22:23:44.135Z,57.45
2023-01-29T22:26:10.727Z,56.41
2023-01-29T22:28:39.951Z,55.10
2023-01-29T22:31:08.745Z,54.71
2023-01-29T22:33:35.577Z,52.70
2023-01-29T22:36:02.149Z,53.51
2023-01-29T22:38:28.937Z,52.97
2023-01-29T22:40:56.024Z,52.82
2023-01-29T22:43:23.588Z,52.80
2023-01-29T22:45:50.437Z,53.28
2023-01-29T22:48:19.247Z,52.70
2023-01-29T22:50:46.108Z,51.40
2023-01-29T22:53:12.623Z,51.07
2023-01-29T22:55:45.131Z,49.61
2023-01-29T22:58:12.042Z,49.81
2023-01-29T23:00:39.534Z,49.97
2023-01-29T23:03:06.354Z,49.58
2023-01-29T23:05:33.093Z,49.58
2023-01-29T23:08:00.376Z,49.60
2023-01-29T23:10:27.233Z,50.00
2023-01-29T23:12:56.210Z,50.15
2023-01-29T23:15:23.037Z,49.65
2023-01-29T23:17:49.724Z,48.98
2023-01-29T23:20:16.944Z,48.50
2023-01-29T23:22:43.829Z,50.01
2023-01-29T23:25:12.857Z,48.11
2023-01-29T23:27:39.704Z,47.71
2023-01-29T23:30:08.520Z,47.77
2023-01-29T23:32:35.546Z,47.02
2023-01-29T23:35:02.101Z,46.35
2023-01-29T23:37:28.926Z,47.54
2023-01-29T23:39:55.434Z,48.73
2023-01-29T23:42:21.954Z,49.67
2023-01-29T23:44:48.765Z,50.41
2023-01-29T23:47:15.659Z,50.29
2023-01-29T23:49:42.526Z,50.49
2023-01-29T23:52:09.114Z,48.78
2023-01-29T23:54:35.794Z,49.39
2023-01-29T23:57:02.508Z,49.70
2023-01-29T23:59:29.373Z,50.72
